createdAt,value
2022-10-15T00:01:26.127Z,95145.06
2022-10-15T00:03:53.730Z,95150.09
2022-10-15T00:06:22.500Z,95145.72
2022-10-15T00:08:51.320Z,95153.31
2022-10-15T00:11:21.194Z,95142.63
2022-10-15T00:13:49.314Z,95162.97
2022-10-15T00:16:19.565Z,95151.47
2022-10-15T00:18:48.028Z,95148.28
2022-10-15T00:21:17.620Z,95156.13
2022-10-15T00:23:45.916Z,95148.59
2022-10-15T00:26:17.616Z,95141.00
2022-10-15T00:28:45.823Z,95155.06
2022-10-15T00:31:15.620Z,95155.69
2022-10-15T00:33:44.067Z,95152.00
2022-10-15T00:36:14.362Z,95133.50
2022-10-15T00:38:42.608Z,95144.97
2022-10-15T00:41:16.624Z,95135.81
2022-10-15T00:43:46.427Z,95144.16
2022-10-15T00:46:20.504Z,95144.47
2022-10-15T00:48:50.316Z,95150.47
2022-10-15T00:51:20.157Z,95143.66
2022-10-15T00:53:49.248Z,95140.00
2022-10-15T00:56:20.965Z,95136.69
2022-10-15T00:58:49.659Z,95118.28
2022-10-15T01:01:17.180Z,95148.63
2022-10-15T01:03:44.686Z,95147.53
2022-10-15T01:06:12.128Z,95153.50
2022-10-15T01:08:39.744Z,95154.63
2022-10-15T01:11:25.057Z,95136.19
2022-10-15T01:14:05.132Z,95147.94
2022-10-15T01:16:41.064Z,95159.41
2022-10-15T01:19:24.557Z,95161.75
2022-10-15T01:21:56.658Z,95144.84
2022-10-15T01:25:03.752Z,95138.78
2022-10-15T01:27:39.553Z,95133.81
2022-10-15T01:30:31.659Z,95142.16
2022-10-15T01:33:11.448Z,95129.50
2022-10-15T01:35:48.971Z,95145.84
2022-10-15T01:38:31.130Z,95138.22
2022-10-15T01:41:01.716Z,95142.66
2022-10-15T01:43:33.907Z,95139.56
2022-10-15T01:46:07.374Z,95139.84
2022-10-15T01:48:37.356Z,95122.50
2022-10-15T01:51:07.237Z,95134.31
2022-10-15T01:53:37.034Z,95135.13
2022-10-15T01:56:09.525Z,95133.28
2022-10-15T01:58:40.106Z,95147.41
2022-10-15T02:01:09.223Z,95126.78
2022-10-15T02:03:45.922Z,95129.16
2022-10-15T02:06:18.428Z,95140.91
2022-10-15T02:08:57.162Z,95131.75
2022-10-15T02:11:24.922Z,95135.44
2022-10-15T02:14:02.614Z,95136.22
2022-10-15T02:16:45.271Z,95130.84
2022-10-15T02:19:19.370Z,95130.34
2022-10-15T02:21:51.112Z,95129.34
2022-10-15T02:24:23.118Z,95130.34
2022-10-15T02:26:53.892Z,95135.63
2022-10-15T02:29:24.816Z,95121.25
2022-10-15T02:31:55.085Z,95118.66
2022-10-15T02:34:26.155Z,95122.91
2022-10-15T02:36:54.542Z,95122.47
2022-10-15T02:39:25.049Z,95123.25
2022-10-15T02:41:53.336Z,95127.69
2022-10-15T02:44:20.816Z,95141.31
2022-10-15T02:46:48.258Z,95136.38
2022-10-15T02:49:17.038Z,95138.69
2022-10-15T02:51:44.424Z,95143.69
2022-10-15T02:54:11.893Z,95144.47
2022-10-15T02:56:39.852Z,95121.03
2022-10-15T02:59:07.472Z,95131.22
2022-10-15T03:01:35.608Z,95129.06
2022-10-15T03:04:03.356Z,95118.34
2022-10-15T03:06:32.115Z,95114.66
2022-10-15T03:08:59.546Z,95111.06
2022-10-15T03:11:26.972Z,95110.78
2022-10-15T03:13:54.429Z,95110.28
2022-10-15T03:16:21.961Z,95116.06
2022-10-15T03:18:49.364Z,95110.84
2022-10-15T03:21:16.916Z,95105.72
2022-10-15T03:23:45.661Z,95121.53
2022-10-15T03:26:13.076Z,95127.00
2022-10-15T03:28:40.618Z,95133.28
2022-10-15T03:31:08.253Z,95132.00
2022-10-15T03:33:35.650Z,95132.53
2022-10-15T03:36:03.057Z,95128.16
2022-10-15T03:38:30.459Z,95129.66
2022-10-15T03:40:59.231Z,95134.34
2022-10-15T03:43:27.144Z,95140.59
2022-10-15T03:45:54.655Z,95152.13
2022-10-15T03:48:22.419Z,95141.34
2022-10-15T03:50:49.821Z,95120.75
2022-10-15T03:53:17.255Z,95113.41
2022-10-15T03:55:44.660Z,95111.84
2022-10-15T03:58:13.424Z,95117.13
2022-10-15T04:00:42.492Z,95124.16
2022-10-15T04:03:09.966Z,95118.06
2022-10-15T04:05:37.724Z,95121.00
2022-10-15T04:08:05.531Z,95133.28
2022-10-15T04:10:32.975Z,95128.03
2022-10-15T04:13:00.435Z,95111.34
2022-10-15T04:15:29.173Z,95097.50
2022-10-15T04:17:56.715Z,95073.78
2022-10-15T04:20:24.463Z,95088.94
2022-10-15T04:22:51.872Z,95103.59
2022-10-15T04:25:19.275Z,95108.88
2022-10-15T04:27:46.691Z,95114.13
2022-10-15T04:30:15.076Z,95119.41
2022-10-15T04:32:43.852Z,95115.81
2022-10-15T04:35:11.376Z,95119.75
2022-10-15T04:37:38.839Z,95120.03
2022-10-15T04:40:07.556Z,95123.72
2022-10-15T04:42:35.181Z,95126.34
2022-10-15T04:45:02.637Z,95127.44
2022-10-15T04:47:30.030Z,95114.13
2022-10-15T04:49:58.799Z,95127.38
2022-10-15T04:52:26.212Z,95108.66
2022-10-15T04:54:53.631Z,95128.44
2022-10-15T04:57:21.361Z,95129.78
2022-10-15T04:59:52.555Z,95127.44
2022-10-15T05:02:22.813Z,95127.97
2022-10-15T05:04:50.517Z,95139.75
2022-10-15T05:07:19.323Z,95131.13
2022-10-15T05:09:46.770Z,95129.31
2022-10-15T05:12:14.190Z,95130.63
2022-10-15T05:14:41.779Z,95128.84
2022-10-15T05:17:09.204Z,95129.84
2022-10-15T05:19:36.612Z,95112.34
2022-10-15T05:22:04.037Z,95125.66
2022-10-15T05:24:32.801Z,95126.41
2022-10-15T05:27:02.825Z,95113.91
2022-10-15T05:29:31.025Z,95121.47
2022-10-15T05:31:58.489Z,95130.53
2022-10-15T05:34:28.493Z,95124.28
2022-10-15T05:36:55.881Z,95130.72
2022-10-15T05:39:23.833Z,95139.03
2022-10-15T05:41:53.422Z,95123.69
2022-10-15T05:44:20.851Z,95133.81
2022-10-15T05:46:48.379Z,95127.31
2022-10-15T05:49:16.052Z,95128.84
2022-10-15T05:51:43.531Z,95135.59
2022-10-15T05:54:11.206Z,95126.47
2022-10-15T05:56:38.616Z,95142.09
2022-10-15T05:59:07.404Z,95130.06
2022-10-15T06:01:34.912Z,95130.59
2022-10-15T06:04:02.384Z,95126.44
2022-10-15T06:06:29.811Z,95132.88
2022-10-15T06:08:59.714Z,95120.88
2022-10-15T06:11:27.200Z,95125.22
2022-10-15T06:13:54.680Z,95134.06
2022-10-15T06:16:24.176Z,95135.91
2022-10-15T06:18:52.984Z,95130.91
2022-10-15T06:21:20.389Z,95134.31
2022-10-15T06:23:47.885Z,95142.66
2022-10-15T06:26:15.343Z,95125.13
2022-10-15T06:28:42.811Z,95127.44
2022-10-15T06:31:10.599Z,95139.66
2022-10-15T06:33:39.496Z,95122.41
2022-10-15T06:36:08.903Z,95114.81
2022-10-15T06:38:36.943Z,95122.59
2022-10-15T06:41:05.306Z,95121.25
2022-10-15T06:43:35.169Z,95124.13
2022-10-15T06:46:03.980Z,95110.69
2022-10-15T06:48:32.572Z,95123.50
2022-10-15T06:51:02.256Z,95108.09
2022-10-15T06:53:31.171Z,95126.53
2022-10-15T06:55:59.411Z,95131.72
2022-10-15T06:58:27.655Z,95125.88
2022-10-15T07:01:00.853Z,95136.78
2022-10-15T07:03:28.735Z,95135.94
2022-10-15T07:05:56.308Z,95126.38
2022-10-15T07:08:25.916Z,95117.28
2022-10-15T07:10:53.398Z,95137.25
2022-10-15T07:13:20.848Z,95135.94
2022-10-15T07:15:53.686Z,95142.66
2022-10-15T07:18:21.170Z,95123.28
2022-10-15T07:20:48.913Z,95120.97
2022-10-15T07:23:16.335Z,95118.00
2022-10-15T07:25:45.136Z,95124.94
2022-10-15T07:28:12.536Z,95129.19
2022-10-15T07:30:39.931Z,95130.03
2022-10-15T07:33:07.400Z,95133.84
2022-10-15T07:35:34.888Z,95131.50
2022-10-15T07:38:02.837Z,95132.91
2022-10-15T07:40:30.521Z,95126.34
2022-10-15T07:43:00.136Z,95129.16
2022-10-15T07:45:28.038Z,95132.00
2022-10-15T07:47:55.494Z,95131.94
2022-10-15T07:50:22.937Z,95140.22
2022-10-15T07:52:50.484Z,95130.72
2022-10-15T07:55:18.049Z,95140.13
2022-10-15T07:57:45.480Z,95148.19
2022-10-15T08:00:14.787Z,95138.13
2022-10-15T08:02:42.213Z,95138.84
2022-10-15T08:05:10.277Z,95150.50
2022-10-15T08:07:37.763Z,95149.41
2022-10-15T08:10:06.349Z,95153.97
2022-10-15T08:12:33.814Z,95147.38
2022-10-15T08:15:01.223Z,95147.44
2022-10-15T08:17:29.988Z,95152.19
2022-10-15T08:19:57.381Z,95145.13
2022-10-15T08:22:25.268Z,95147.69
2022-10-15T08:24:53.131Z,95142.13
2022-10-15T08:27:20.543Z,95147.03
2022-10-15T08:29:48.008Z,95141.88
2022-10-15T08:32:15.415Z,95143.66
2022-10-15T08:34:44.252Z,95145.72
2022-10-15T08:37:11.793Z,95140.00
2022-10-15T08:39:39.410Z,95134.03
2022-10-15T08:42:14.573Z,95131.41
2022-10-15T08:44:45.852Z,95130.44
2022-10-15T08:47:27.149Z,95116.75
2022-10-15T08:49:59.271Z,95132.38
2022-10-15T08:52:37.415Z,95124.13
2022-10-15T08:55:05.615Z,95117.63
2022-10-15T08:57:41.070Z,95120.50
2022-10-15T09:00:15.016Z,95118.56
2022-10-15T09:02:51.312Z,95141.13
2022-10-15T09:05:29.824Z,95136.47
2022-10-15T09:08:05.420Z,95133.25
2022-10-15T09:10:39.257Z,95135.31
2022-10-15T09:13:15.479Z,95119.06
2022-10-15T09:15:51.797Z,95130.53
2022-10-15T09:18:23.697Z,95137.03
2022-10-15T09:20:53.540Z,95131.69
2022-10-15T09:23:24.331Z,95135.09
2022-10-15T09:25:59.319Z,95128.97
2022-10-15T09:28:38.056Z,95118.38
2022-10-15T09:31:09.431Z,95115.38
2022-10-15T09:33:42.683Z,95116.72
2022-10-15T09:36:22.660Z,95125.38
2022-10-15T09:39:05.827Z,95123.34
2022-10-15T09:41:40.739Z,95118.00
2022-10-15T09:44:14.035Z,95121.03
2022-10-15T09:46:45.991Z,95110.63
2022-10-15T09:49:19.290Z,95124.50
2022-10-15T09:51:58.689Z,95114.50
2022-10-15T09:54:32.194Z,95117.03
2022-10-15T09:56:59.638Z,95123.72
2022-10-15T09:59:27.971Z,95120.41
2022-10-15T10:02:00.915Z,95122.25
2022-10-15T10:04:30.036Z,95113.53
2022-10-15T10:07:01.250Z,95101.44
2022-10-15T10:09:32.923Z,95112.22
2022-10-15T10:12:02.883Z,95104.44
2022-10-15T10:14:33.054Z,95106.47
2022-10-15T10:17:06.716Z,95106.72
2022-10-15T10:19:34.223Z,95102.94
2022-10-15T10:22:15.068Z,95097.47
2022-10-15T10:24:42.538Z,95097.78
2022-10-15T10:27:25.499Z,95098.66
2022-10-15T10:30:00.411Z,95115.56
2022-10-15T10:32:30.704Z,95103.53
2022-10-15T10:34:59.702Z,95106.16
2022-10-15T10:37:29.354Z,95119.66
2022-10-15T10:39:59.045Z,95110.88
2022-10-15T10:42:31.873Z,95114.16
2022-10-15T10:45:18.584Z,95112.50
2022-10-15T10:47:46.785Z,95103.34
2022-10-15T10:50:30.240Z,95106.38
2022-10-15T10:53:11.140Z,95102.44
2022-10-15T10:55:40.406Z,95103.50
2022-10-15T10:58:20.128Z,95094.97
2022-10-15T11:00:52.773Z,95103.88
2022-10-15T11:03:29.427Z,95091.75
2022-10-15T11:06:04.653Z,95100.59
2022-10-15T11:08:41.515Z,95107.09
2022-10-15T11:11:19.397Z,95106.69
2022-10-15T11:13:57.096Z,95098.69
2022-10-15T11:16:34.078Z,95102.75
2022-10-15T11:19:25.418Z,95104.47
2022-10-15T11:25:07.643Z,95093.72
2022-10-15T11:27:52.192Z,95096.69
2022-10-15T11:30:31.231Z,95091.00
2022-10-15T11:33:14.548Z,95097.34
2022-10-15T11:35:53.949Z,95102.78
2022-10-15T11:38:30.182Z,95097.66
2022-10-15T11:41:15.249Z,95106.19
2022-10-15T11:43:56.485Z,95090.63
2022-10-15T11:46:32.715Z,95096.56
2022-10-15T11:49:12.231Z,95089.56
2022-10-15T11:51:56.896Z,95089.63
2022-10-15T11:54:31.716Z,95092.47
2022-10-15T11:57:04.652Z,95087.41
2022-10-15T11:59:38.539Z,95084.50
2022-10-15T12:02:13.806Z,95092.22
2022-10-15T12:04:45.749Z,95089.59
2022-10-15T12:07:19.496Z,95093.47
2022-10-15T12:09:50.256Z,95086.22
2022-10-15T12:12:29.238Z,95089.31
2022-10-15T12:15:08.648Z,95084.59
2022-10-15T12:17:47.064Z,95093.44
2022-10-15T12:20:16.885Z,95093.72
2022-10-15T12:22:55.851Z,95092.66
2022-10-15T12:25:41.658Z,95098.88
2022-10-15T12:28:18.386Z,95083.75
2022-10-15T12:30:59.461Z,95089.94
2022-10-15T12:33:34.156Z,95082.50
2022-10-15T12:36:06.007Z,95094.41
2022-10-15T12:38:35.403Z,95093.19
2022-10-15T12:41:07.079Z,95096.13
2022-10-15T12:43:39.148Z,95088.97
2022-10-15T12:46:09.142Z,95078.28
2022-10-15T12:48:40.409Z,95084.00
2022-10-15T12:51:37.659Z,95075.34
2022-10-15T12:54:42.776Z,95077.66
2022-10-15T12:57:47.579Z,95076.13
2022-10-15T13:00:40.422Z,95062.84
2022-10-15T13:03:36.375Z,95063.78
2022-10-15T13:06:27.040Z,95067.03
2022-10-15T13:09:01.609Z,95060.50
2022-10-15T13:11:31.779Z,95062.03
2022-10-15T13:14:02.412Z,95046.56
2022-10-15T13:16:32.239Z,95060.81
2022-10-15T13:19:00.279Z,95047.66
2022-10-15T13:21:50.417Z,95052.75
2022-10-15T13:24:20.901Z,95056.03
2022-10-15T13:26:49.081Z,95074.47
2022-10-15T13:29:17.844Z,95074.63
2022-10-15T13:31:48.058Z,95056.78
2022-10-15T13:34:25.010Z,95068.41
2022-10-15T13:36:53.619Z,95074.91
2022-10-15T13:39:29.358Z,95076.16
2022-10-15T13:42:08.769Z,95075.97
2022-10-15T13:44:36.756Z,95069.34
2022-10-15T13:47:24.488Z,95068.88
2022-10-15T13:49:51.999Z,95070.72
2022-10-15T13:52:19.656Z,95080.59
2022-10-15T13:54:47.612Z,95082.34
2022-10-15T13:57:17.883Z,95077.53
2022-10-15T13:59:47.103Z,95054.00
2022-10-15T14:02:16.192Z,95065.16
2022-10-15T14:04:44.780Z,95072.44
2022-10-15T14:07:24.720Z,95078.03
2022-10-15T14:09:52.679Z,95077.84
2022-10-15T14:12:20.151Z,95069.34
2022-10-15T14:14:49.108Z,95071.03
2022-10-15T14:17:25.360Z,95073.03
2022-10-15T14:20:14.811Z,95065.88
2022-10-15T14:22:43.665Z,95085.41
2022-10-15T14:27:46.429Z,95089.72
2022-10-15T14:30:15.168Z,95101.84
2022-10-15T14:32:48.414Z,95086.19
2022-10-15T14:35:29.832Z,95101.22
2022-10-15T14:38:01.890Z,95094.25
2022-10-15T14:40:29.568Z,95096.44
2022-10-15T14:43:05.856Z,95098.16
2022-10-15T14:45:41.176Z,95086.38
2022-10-15T14:48:13.287Z,95091.03
2022-10-15T14:50:44.278Z,95101.09
2022-10-15T14:53:18.771Z,95106.03
2022-10-15T14:55:52.212Z,95104.00
2022-10-15T14:58:23.286Z,95102.13
2022-10-15T15:00:57.899Z,95106.78
2022-10-15T15:03:31.654Z,95101.94
2022-10-15T15:05:59.240Z,95120.53
2022-10-15T15:08:27.529Z,95127.53
2022-10-15T15:10:58.320Z,95117.31
2022-10-15T15:13:28.103Z,95125.31
2022-10-15T15:15:55.687Z,95114.78
2022-10-15T15:18:23.627Z,95113.31
2022-10-15T15:20:52.411Z,95138.09
2022-10-15T15:23:21.943Z,95133.91
2022-10-15T15:25:50.332Z,95132.06
2022-10-15T15:28:20.399Z,95124.78
2022-10-15T15:30:52.183Z,95127.53
2022-10-15T15:33:19.566Z,95135.38
2022-10-15T15:35:51.433Z,95127.81
2022-10-15T15:38:21.597Z,95127.34
2022-10-15T15:40:49.371Z,95140.03
2022-10-15T15:43:18.452Z,95153.59
2022-10-15T15:45:47.552Z,95155.31
2022-10-15T15:48:14.992Z,95146.66
2022-10-15T15:50:42.604Z,95140.75
2022-10-15T15:53:12.920Z,95139.59
2022-10-15T15:55:41.659Z,95146.13
2022-10-15T15:58:09.090Z,95150.59
2022-10-15T16:00:36.543Z,95148.56
2022-10-15T16:03:04.018Z,95138.66
2022-10-15T16:05:31.449Z,95151.94
2022-10-15T16:07:58.848Z,95159.34
2022-10-15T16:10:26.261Z,95157.63
2022-10-15T16:12:56.136Z,95156.19
2022-10-15T16:15:23.534Z,95155.41
2022-10-15T16:17:50.971Z,95162.94
2022-10-15T16:20:18.553Z,95167.25
2022-10-15T16:22:45.972Z,95172.63
2022-10-15T16:25:13.379Z,95181.09
2022-10-15T16:27:40.777Z,95191.59
2022-10-15T16:30:10.904Z,95197.19
2022-10-15T16:32:38.447Z,95197.00
2022-10-15T16:35:06.776Z,95195.38
2022-10-15T16:37:34.206Z,95212.22
2022-10-15T16:40:01.702Z,95215.97
2022-10-15T16:42:29.203Z,95218.00
2022-10-15T16:44:56.615Z,95224.03
2022-10-15T16:47:25.575Z,95229.06
2022-10-15T16:49:55.351Z,95223.66
2022-10-15T16:52:23.050Z,95230.94
2022-10-15T16:54:50.768Z,95219.25
2022-10-15T16:57:18.197Z,95231.63
2022-10-15T16:59:45.614Z,95229.78
2022-10-15T17:02:13.032Z,95240.56
2022-10-15T17:04:41.820Z,95237.16
2022-10-15T17:07:09.198Z,95239.56
2022-10-15T17:09:37.443Z,95251.44
2022-10-15T17:12:05.576Z,95260.22
2022-10-15T17:14:33.087Z,95260.03
2022-10-15T17:17:00.475Z,95274.31
2022-10-15T17:19:30.610Z,95254.06
2022-10-15T17:22:02.120Z,95285.38
2022-10-15T17:24:29.712Z,95284.50
2022-10-15T17:26:57.873Z,95285.88
2022-10-15T17:29:29.061Z,95297.69
2022-10-15T17:32:01.634Z,95306.63
2022-10-15T17:34:29.037Z,95314.56
2022-10-15T17:36:57.058Z,95323.81
2022-10-15T17:39:25.891Z,95324.31
2022-10-15T17:41:53.297Z,95324.31
2022-10-15T17:44:21.635Z,95332.75
2022-10-15T17:49:21.456Z,95346.19
2022-10-15T17:51:48.898Z,95351.44
2022-10-15T17:54:16.614Z,95354.06
2022-10-15T17:56:45.343Z,95347.97
2022-10-15T17:59:13.459Z,95360.88
2022-10-15T18:01:59.848Z,95350.78
2022-10-15T18:04:28.487Z,95349.44
2022-10-15T18:06:55.958Z,95359.72
2022-10-15T18:09:23.430Z,95375.22
2022-10-15T18:11:52.291Z,95358.22
2022-10-15T18:16:48.144Z,95360.53
2022-10-15T18:19:15.638Z,95349.44
2022-10-15T18:21:47.007Z,95353.84
2022-10-15T18:24:19.101Z,95346.59
2022-10-15T18:26:46.502Z,95339.94
2022-10-15T18:29:15.267Z,95348.66
2022-10-15T18:31:42.710Z,95339.50
2022-10-15T18:34:10.237Z,95341.69
2022-10-15T18:36:41.367Z,95337.03
2022-10-15T18:39:08.867Z,95343.25
2022-10-15T18:41:38.068Z,95353.47
2022-10-15T18:44:07.685Z,95354.31
2022-10-15T18:46:38.032Z,95355.44
2022-10-15T18:49:05.470Z,95368.34
2022-10-15T18:51:32.960Z,95358.50
2022-10-15T18:54:01.363Z,95363.97
2022-10-15T18:56:29.269Z,95360.53
2022-10-15T18:58:56.830Z,95367.59
2022-10-15T19:01:27.628Z,95373.41
2022-10-15T19:03:57.681Z,95367.78
2022-10-15T19:06:27.763Z,95374.50
2022-10-15T19:08:57.765Z,95392.84
2022-10-15T19:11:25.407Z,95374.25
2022-10-15T19:13:52.898Z,95391.03
2022-10-15T19:16:20.312Z,95382.44
2022-10-15T19:18:47.756Z,95388.66
2022-10-15T19:21:16.561Z,95382.44
2022-10-15T19:23:44.073Z,95385.06
2022-10-15T19:26:13.592Z,95380.72
2022-10-15T19:28:41.418Z,95384.16
2022-10-15T19:31:11.244Z,95379.81
2022-10-15T19:33:38.775Z,95380.94
2022-10-15T19:36:06.491Z,95380.53
2022-10-15T19:38:35.516Z,95382.13
2022-10-15T19:41:04.524Z,95383.69
2022-10-15T19:43:32.005Z,95359.13
2022-10-15T19:46:03.903Z,95379.69
2022-10-15T19:48:32.004Z,95373.53
2022-10-15T19:51:02.164Z,95376.81
2022-10-15T19:53:30.264Z,95381.00
2022-10-15T19:56:00.673Z,95392.84
2022-10-15T19:58:28.264Z,95398.41
2022-10-15T20:00:56.415Z,95395.78
2022-10-15T20:03:25.289Z,95399.25
2022-10-15T20:05:52.790Z,95403.72
2022-10-15T20:08:20.423Z,95400.63
2022-10-15T20:10:51.932Z,95405.50
2022-10-15T20:13:22.066Z,95407.16
2022-10-15T20:15:51.181Z,95399.28
2022-10-15T20:18:19.579Z,95412.91
2022-10-15T20:20:47.389Z,95417.38
2022-10-15T20:23:15.248Z,95423.41
2022-10-15T20:25:43.767Z,95425.94
2022-10-15T20:28:12.127Z,95428.56
2022-10-15T20:30:41.534Z,95432.53
2022-10-15T20:33:10.137Z,95428.81
2022-10-15T20:35:38.949Z,95448.38
2022-10-15T20:38:07.324Z,95458.81
2022-10-15T20:40:36.196Z,95472.38
2022-10-15T20:43:03.587Z,95464.31
2022-10-15T20:45:37.673Z,95485.25
2022-10-15T20:48:07.776Z,95490.19
2022-10-15T20:50:36.621Z,95480.53
2022-10-15T20:53:04.211Z,95486.06
2022-10-15T20:55:31.627Z,95485.81
2022-10-15T20:57:59.096Z,95486.06
2022-10-15T21:00:26.489Z,95481.38
2022-10-15T21:02:53.875Z,95489.19
2022-10-15T21:05:22.996Z,95472.97
2022-10-15T21:07:50.408Z,95476.38
2022-10-15T21:10:17.879Z,95473.50
2022-10-15T21:12:45.412Z,95483.72
2022-10-15T21:15:12.836Z,95480.06
2022-10-15T21:17:40.888Z,95481.66
2022-10-15T21:20:09.696Z,95487.97
2022-10-15T21:22:38.430Z,95487.69
2022-10-15T21:25:06.948Z,95493.47
2022-10-15T21:27:34.664Z,95483.34
2022-10-15T21:30:02.067Z,95499.78
2022-10-15T21:32:29.476Z,95498.53
2022-10-15T21:34:57.305Z,95504.28
2022-10-15T21:37:25.049Z,95505.81
2022-10-15T21:39:53.947Z,95500.09
2022-10-15T21:42:21.338Z,95493.50
2022-10-15T21:44:48.760Z,95496.63
2022-10-15T21:47:16.179Z,95503.44
2022-10-15T21:49:45.599Z,95501.34
2022-10-15T21:52:13.375Z,95508.63
2022-10-15T21:54:40.873Z,95499.78
2022-10-15T21:57:09.604Z,95501.09
2022-10-15T21:59:37.052Z,95472.09
2022-10-15T22:02:04.627Z,95490.28
2022-10-15T22:04:34.126Z,95481.94
2022-10-15T22:07:01.651Z,95496.41
2022-10-15T22:09:29.308Z,95495.69
2022-10-15T22:11:56.802Z,95495.69
2022-10-15T22:14:25.578Z,95493.34
2022-10-15T22:16:53.024Z,95479.53
2022-10-15T22:19:20.440Z,95488.09
2022-10-15T22:21:47.884Z,95492.81
2022-10-15T22:24:19.060Z,95488.56
2022-10-15T22:26:48.397Z,95489.09
2022-10-15T22:29:18.808Z,95497.19
2022-10-15T22:31:47.936Z,95505.00
2022-10-15T22:34:15.532Z,95508.72
2022-10-15T22:36:42.972Z,95507.41
2022-10-15T22:39:13.801Z,95518.63
2022-10-15T22:41:43.224Z,95517.56
2022-10-15T22:44:14.616Z,95508.66
2022-10-15T22:46:45.909Z,95514.69
2022-10-15T22:49:15.089Z,95523.84
2022-10-15T22:51:43.134Z,95515.47
2022-10-15T22:54:10.597Z,95530.09
2022-10-15T22:56:38.232Z,95526.94
2022-10-15T22:59:06.066Z,95524.34
2022-10-15T23:01:35.323Z,95525.09
2022-10-15T23:04:04.798Z,95525.09
2022-10-15T23:06:36.176Z,95525.16
2022-10-15T23:09:05.633Z,95525.66
2022-10-15T23:11:35.833Z,95518.34
2022-10-15T23:14:05.726Z,95524.34
2022-10-15T23:16:34.674Z,95539.75
2022-10-15T23:19:04.306Z,95534.75
2022-10-15T23:21:35.807Z,95539.22
2022-10-15T23:24:04.002Z,95527.22
2022-10-15T23:26:32.185Z,95541.38
2022-10-15T23:29:01.334Z,95534.81
2022-10-15T23:31:31.120Z,95524.88
2022-10-15T23:33:59.504Z,95528.81
2022-10-15T23:36:28.412Z,95527.78
2022-10-15T23:38:59.290Z,95537.44
2022-10-15T23:41:28.124Z,95520.72
2022-10-15T23:43:55.850Z,95522.81
2022-10-15T23:46:23.471Z,95519.16
2022-10-15T23:48:51.165Z,95532.75
2022-10-15T23:51:21.451Z,95531.47
2022-10-15T23:53:49.277Z,95532.28
2022-10-15T23:56:18.558Z,95543.25
2022-10-15T23:58:48.728Z,95535.69
